createdAt,value
2019-03-03T00:00:40.758Z,8.10
2019-03-03T00:01:40.693Z,9.50
2019-03-03T00:02:40.637Z,11.00
2019-03-03T00:03:40.566Z,9.20
2019-03-03T00:04:40.528Z,7.40
2019-03-03T00:05:40.443Z,7.40
2019-03-03T00:06:40.367Z,8.10
2019-03-03T00:07:40.302Z,6.00
2019-03-03T00:08:40.232Z,7.40
2019-03-03T00:09:40.172Z,7.30
2019-03-03T00:10:40.106Z,8.50
2019-03-03T00:11:40.044Z,8.00
2019-03-03T00:12:39.976Z,6.90
2019-03-03T00:13:39.914Z,7.40
2019-03-03T00:14:39.847Z,7.70
2019-03-03T00:15:39.787Z,5.20
2019-03-03T00:16:39.727Z,8.70
2019-03-03T00:17:39.655Z,6.80
2019-03-03T00:18:39.583Z,6.60
2019-03-03T00:19:39.522Z,6.20
2019-03-03T00:20:39.457Z,4.60
2019-03-03T00:21:39.397Z,4.00
2019-03-03T00:22:39.328Z,4.90
2019-03-03T00:23:39.266Z,5.00
2019-03-03T00:24:39.199Z,6.00
2019-03-03T00:25:39.937Z,6.30
2019-03-03T00:26:39.076Z,5.10
2019-03-03T00:27:39.008Z,4.70
2019-03-03T00:28:38.935Z,5.90
2019-03-03T00:29:38.872Z,6.80
2019-03-03T00:30:38.809Z,5.80
2019-03-03T00:31:38.746Z,5.20
2019-03-03T00:32:38.679Z,4.70
2019-03-03T00:33:38.612Z,5.10
2019-03-03T00:34:38.543Z,4.70
2019-03-03T00:35:38.480Z,5.40
2019-03-03T00:36:38.422Z,6.80
2019-03-03T00:37:38.356Z,3.90
2019-03-03T00:38:38.295Z,6.00
2019-03-03T00:39:38.219Z,3.60
2019-03-03T00:40:38.157Z,4.20
2019-03-03T00:41:38.091Z,3.30
2019-03-03T00:42:38.029Z,3.80
2019-03-03T00:43:37.964Z,4.10
2019-03-03T00:44:37.905Z,3.10
2019-03-03T00:45:37.827Z,3.90
2019-03-03T00:46:37.767Z,4.00
2019-03-03T00:47:37.716Z,3.40
2019-03-03T00:48:37.637Z,4.50
2019-03-03T00:49:37.573Z,4.90
2019-03-03T00:50:37.508Z,3.50
2019-03-03T00:51:37.442Z,4.40
2019-03-03T00:52:37.381Z,3.50
2019-03-03T00:53:37.320Z,3.60
2019-03-03T00:54:37.252Z,2.70
2019-03-03T00:55:37.181Z,4.20
2019-03-03T00:56:37.118Z,5.00
2019-03-03T00:57:37.053Z,3.40
2019-03-03T00:58:36.986Z,5.00
2019-03-03T00:59:36.922Z,3.90
2019-03-03T01:00:36.857Z,3.40
2019-03-03T01:01:36.793Z,3.90
2019-03-03T01:02:36.733Z,3.90
2019-03-03T01:03:36.665Z,3.30
2019-03-03T01:04:36.604Z,3.70
2019-03-03T01:05:36.536Z,3.70
2019-03-03T01:06:36.471Z,3.30
2019-03-03T01:07:36.405Z,3.40
2019-03-03T01:08:36.338Z,5.20
2019-03-03T01:09:36.273Z,3.60
2019-03-03T01:10:36.209Z,5.60
2019-03-03T01:11:36.142Z,3.70
2019-03-03T01:12:36.072Z,5.70
2019-03-03T01:13:36.013Z,3.20
2019-03-03T01:14:35.947Z,4.10
2019-03-03T01:15:35.882Z,4.20
2019-03-03T01:16:35.816Z,4.70
2019-03-03T01:17:35.772Z,7.50
2019-03-03T01:18:35.692Z,4.40
2019-03-03T01:19:35.624Z,5.20
2019-03-03T01:20:35.558Z,3.20
2019-03-03T01:21:35.497Z,5.90
2019-03-03T01:22:35.433Z,5.10
2019-03-03T01:23:35.362Z,5.70
2019-03-03T01:24:35.300Z,5.30
2019-03-03T01:25:35.232Z,3.40
2019-03-03T01:26:35.168Z,4.00
2019-03-03T01:27:35.108Z,4.30
2019-03-03T01:28:35.037Z,4.10
2019-03-03T01:29:34.979Z,6.00
2019-03-03T01:30:34.912Z,3.20
2019-03-03T01:31:34.863Z,6.50
2019-03-03T01:32:34.774Z,5.10
2019-03-03T01:33:34.716Z,3.70
2019-03-03T01:34:34.649Z,4.70
2019-03-03T01:35:34.584Z,3.30
2019-03-03T01:36:34.517Z,4.80
2019-03-03T01:37:34.455Z,4.60
2019-03-03T01:38:34.391Z,5.00
2019-03-03T01:39:34.323Z,4.40
2019-03-03T01:40:34.261Z,4.20
2019-03-03T01:41:34.196Z,4.70
2019-03-03T01:42:34.132Z,4.10
2019-03-03T01:43:34.064Z,6.90
2019-03-03T01:44:33.998Z,4.50
2019-03-03T01:45:33.940Z,7.00
2019-03-03T01:46:33.868Z,4.40
2019-03-03T01:47:33.804Z,4.60
2019-03-03T01:48:33.740Z,5.30
2019-03-03T01:49:33.671Z,4.50
2019-03-03T01:50:33.611Z,4.90
2019-03-03T01:51:33.550Z,4.90
2019-03-03T01:52:33.478Z,6.10
2019-03-03T01:53:33.413Z,7.10
2019-03-03T01:54:33.369Z,3.90
2019-03-03T01:55:33.284Z,4.10
2019-03-03T01:56:33.220Z,4.70
2019-03-03T01:57:33.153Z,5.60
2019-03-03T01:58:33.089Z,4.40
2019-03-03T01:59:33.022Z,3.30
2019-03-03T02:00:32.955Z,4.50
2019-03-03T02:01:32.895Z,4.40
2019-03-03T02:02:32.827Z,6.40
2019-03-03T02:03:32.764Z,4.30
2019-03-03T02:04:32.699Z,6.60
2019-03-03T02:05:32.641Z,4.90
2019-03-03T02:06:32.574Z,6.60
2019-03-03T02:07:32.505Z,6.70
2019-03-03T02:08:32.439Z,5.70
2019-03-03T02:09:32.368Z,7.40
2019-03-03T02:10:32.306Z,4.30
2019-03-03T02:11:32.241Z,4.60
2019-03-03T02:12:32.178Z,5.90
2019-03-03T02:13:32.111Z,5.20
2019-03-03T02:14:32.048Z,3.90
2019-03-03T02:15:31.981Z,3.80
2019-03-03T02:16:31.912Z,8.40
2019-03-03T02:17:31.868Z,5.60
2019-03-03T02:18:31.792Z,5.20
2019-03-03T02:19:31.719Z,3.70
2019-03-03T02:20:31.657Z,5.10
2019-03-03T02:21:31.593Z,6.40
2019-03-03T02:22:31.528Z,7.20
2019-03-03T02:23:31.462Z,4.00
2019-03-03T02:24:31.395Z,6.70
2019-03-03T02:25:31.336Z,5.00
2019-03-03T02:26:31.266Z,4.70
2019-03-03T02:27:31.198Z,4.80
2019-03-03T02:28:31.146Z,4.60
2019-03-03T02:29:31.069Z,4.90
2019-03-03T02:30:31.020Z,5.70
2019-03-03T02:31:30.940Z,5.90
2019-03-03T02:32:30.878Z,4.60
2019-03-03T02:33:30.817Z,4.30
2019-03-03T02:34:30.749Z,4.50
2019-03-03T02:35:30.682Z,5.80
2019-03-03T02:36:30.612Z,4.00
2019-03-03T02:37:30.555Z,5.10
2019-03-03T02:38:30.484Z,4.50
2019-03-03T02:39:30.421Z,4.10
2019-03-03T02:40:30.362Z,5.40
2019-03-03T02:41:30.292Z,4.60
2019-03-03T02:42:30.240Z,7.00
2019-03-03T02:43:30.170Z,5.00
2019-03-03T02:44:30.096Z,4.50
2019-03-03T02:45:30.042Z,4.10
2019-03-03T02:46:29.980Z,4.50
2019-03-03T02:47:29.899Z,4.30
2019-03-03T02:48:29.838Z,7.20
2019-03-03T02:49:29.770Z,6.40
2019-03-03T02:50:29.704Z,7.40
2019-03-03T02:51:29.640Z,5.90
2019-03-03T02:52:29.574Z,5.00
2019-03-03T02:53:29.506Z,5.30
2019-03-03T02:54:29.460Z,3.80
2019-03-03T02:55:29.387Z,5.80
2019-03-03T02:56:29.315Z,7.00
2019-03-03T02:57:29.249Z,7.60
2019-03-03T02:58:29.184Z,5.90
2019-03-03T02:59:29.211Z,5.40
2019-03-03T03:00:29.066Z,6.20
2019-03-03T03:01:28.993Z,6.20
2019-03-03T03:02:28.933Z,6.00
2019-03-03T03:03:28.860Z,4.10
2019-03-03T03:04:28.807Z,5.70
2019-03-03T03:05:28.735Z,7.90
2019-03-03T03:06:28.667Z,4.00
2019-03-03T03:07:28.600Z,4.20
2019-03-03T03:08:28.539Z,3.70
2019-03-03T03:09:28.478Z,4.50
2019-03-03T03:10:28.414Z,3.10
2019-03-03T03:11:28.342Z,5.20
2019-03-03T03:12:28.285Z,5.40
2019-03-03T03:13:28.207Z,6.70
2019-03-03T03:14:28.147Z,6.10
2019-03-03T03:15:28.082Z,4.40
2019-03-03T03:16:28.028Z,3.90
2019-03-03T03:17:27.954Z,4.60
2019-03-03T03:18:27.888Z,6.60
2019-03-03T03:19:27.832Z,4.10
2019-03-03T03:20:27.754Z,4.90
2019-03-03T03:21:27.698Z,6.60
2019-03-03T03:22:27.628Z,5.10
2019-03-03T03:23:27.559Z,4.60
2019-03-03T03:24:27.504Z,4.60
2019-03-03T03:25:27.428Z,5.80
2019-03-03T03:26:27.367Z,4.90
2019-03-03T03:27:27.309Z,5.50
2019-03-03T03:28:27.242Z,4.70
2019-03-03T03:29:27.179Z,4.00
2019-03-03T03:30:27.107Z,5.50
2019-03-03T03:31:27.050Z,4.70
2019-03-03T03:32:26.986Z,5.20
2019-03-03T03:33:26.923Z,5.20
2019-03-03T03:34:26.848Z,5.10
2019-03-03T03:35:26.783Z,5.70
2019-03-03T03:36:26.718Z,4.30
2019-03-03T03:37:26.663Z,5.40
2019-03-03T03:38:26.588Z,4.60
2019-03-03T03:39:26.525Z,5.70
2019-03-03T03:40:26.453Z,4.60
2019-03-03T03:41:26.390Z,4.50
2019-03-03T03:42:26.337Z,4.10
2019-03-03T03:43:26.260Z,5.40
2019-03-03T03:44:26.197Z,3.70
2019-03-03T03:45:26.132Z,5.50
2019-03-03T03:46:26.073Z,5.90
2019-03-03T03:47:26.005Z,3.70
2019-03-03T03:48:25.949Z,4.70
2019-03-03T03:49:25.880Z,4.80
2019-03-03T03:50:25.801Z,3.30
2019-03-03T03:51:25.741Z,6.10
2019-03-03T03:52:25.672Z,3.00
2019-03-03T03:53:25.611Z,3.10
2019-03-03T03:54:25.569Z,3.20
2019-03-03T03:55:25.482Z,2.80
2019-03-03T03:56:25.417Z,4.70
2019-03-03T03:57:25.353Z,4.70
2019-03-03T03:58:25.291Z,2.80
2019-03-03T03:59:25.229Z,4.00
2019-03-03T04:00:25.156Z,2.90
2019-03-03T04:01:25.091Z,3.20
2019-03-03T04:02:25.026Z,3.80
2019-03-03T04:03:24.967Z,2.70
2019-03-03T04:04:24.895Z,3.00
2019-03-03T04:05:24.831Z,4.20
2019-03-03T04:06:24.774Z,3.00
2019-03-03T04:07:24.702Z,4.30
2019-03-03T04:08:24.637Z,5.90
2019-03-03T04:09:24.582Z,3.80
2019-03-03T04:10:24.504Z,4.70
2019-03-03T04:11:24.441Z,3.00
2019-03-03T04:12:24.379Z,3.30
2019-03-03T04:13:24.312Z,3.00
2019-03-03T04:14:24.265Z,4.10
2019-03-03T04:15:24.182Z,4.30
2019-03-03T04:16:24.124Z,2.60
2019-03-03T04:17:24.048Z,3.50
2019-03-03T04:18:23.986Z,2.90
2019-03-03T04:19:23.917Z,2.70
2019-03-03T04:20:23.860Z,2.40
2019-03-03T04:21:23.792Z,3.40
2019-03-03T04:22:23.727Z,2.90
2019-03-03T04:23:23.664Z,2.70
2019-03-03T04:24:23.608Z,3.60
2019-03-03T04:25:23.533Z,4.40
2019-03-03T04:26:23.469Z,3.10
2019-03-03T04:27:23.396Z,3.80
2019-03-03T04:28:23.343Z,2.70
2019-03-03T04:29:23.272Z,2.90
2019-03-03T04:30:23.206Z,3.00
2019-03-03T04:31:23.139Z,2.50
2019-03-03T04:32:23.070Z,5.50
2019-03-03T04:33:23.010Z,3.00
2019-03-03T04:34:22.942Z,3.00
2019-03-03T04:35:22.887Z,4.10
2019-03-03T04:36:22.821Z,2.90
2019-03-03T04:37:22.746Z,3.80
2019-03-03T04:38:22.686Z,2.80
2019-03-03T04:39:22.620Z,3.20
2019-03-03T04:40:22.554Z,2.40
2019-03-03T04:41:22.491Z,2.20
2019-03-03T04:42:22.427Z,2.10
2019-03-03T04:43:22.361Z,3.20
2019-03-03T04:44:22.297Z,2.40
2019-03-03T04:45:22.231Z,3.60
2019-03-03T04:46:22.177Z,4.30
2019-03-03T04:47:22.107Z,3.10
2019-03-03T04:48:22.034Z,2.80
2019-03-03T04:49:21.970Z,2.20
2019-03-03T04:50:21.905Z,3.30
2019-03-03T04:51:21.846Z,2.80
2019-03-03T04:52:21.775Z,1.90
2019-03-03T04:53:21.715Z,3.00
2019-03-03T04:54:21.642Z,2.20
2019-03-03T04:55:21.579Z,4.70
2019-03-03T04:56:21.514Z,2.40
2019-03-03T04:57:21.452Z,3.00
2019-03-03T04:58:21.386Z,2.30
2019-03-03T04:59:21.323Z,3.00
2019-03-03T05:00:21.276Z,2.00
2019-03-03T05:01:21.202Z,2.20
2019-03-03T05:02:21.136Z,2.30
2019-03-03T05:03:21.060Z,2.30
2019-03-03T05:04:20.994Z,4.80
2019-03-03T05:05:20.930Z,6.70
2019-03-03T05:06:20.864Z,2.20
2019-03-03T05:07:20.801Z,2.10
2019-03-03T05:08:20.737Z,2.70
2019-03-03T05:09:20.672Z,2.30
2019-03-03T05:10:20.611Z,2.90
2019-03-03T05:11:20.542Z,2.30
2019-03-03T05:12:20.489Z,2.60
2019-03-03T05:13:20.424Z,3.70
2019-03-03T05:14:20.344Z,2.60
2019-03-03T05:15:20.280Z,3.50
2019-03-03T05:16:20.214Z,2.20
2019-03-03T05:17:20.150Z,2.10
2019-03-03T05:18:20.084Z,3.10
2019-03-03T05:19:20.021Z,2.70
2019-03-03T05:20:19.959Z,2.40
2019-03-03T05:21:19.890Z,4.00
2019-03-03T05:22:19.828Z,1.90
2019-03-03T05:23:19.769Z,2.20
2019-03-03T05:24:19.697Z,2.10
2019-03-03T05:25:19.630Z,2.20
2019-03-03T05:26:19.567Z,2.50
2019-03-03T05:27:19.515Z,2.80
2019-03-03T05:28:19.444Z,1.80
2019-03-03T05:29:19.373Z,5.50
2019-03-03T05:30:19.319Z,4.00
2019-03-03T05:31:19.246Z,2.10
2019-03-03T05:32:19.177Z,2.90
2019-03-03T05:33:19.122Z,2.30
2019-03-03T05:34:19.046Z,2.30
2019-03-03T05:35:18.983Z,5.10
2019-03-03T05:36:18.925Z,2.20
2019-03-03T05:37:18.853Z,2.00
2019-03-03T05:38:18.794Z,2.30
2019-03-03T05:39:18.723Z,2.30
2019-03-03T05:40:18.662Z,2.30
2019-03-03T05:41:18.593Z,3.00
2019-03-03T05:42:18.534Z,2.40
2019-03-03T05:43:18.477Z,2.10
2019-03-03T05:44:18.398Z,2.40
2019-03-03T05:45:18.330Z,3.20
2019-03-03T05:46:18.268Z,2.10
2019-03-03T05:47:18.206Z,3.10
2019-03-03T05:48:18.145Z,2.00
2019-03-03T05:49:18.077Z,2.80
2019-03-03T05:50:18.018Z,3.30
2019-03-03T05:51:17.941Z,2.40
2019-03-03T05:52:17.882Z,2.80
2019-03-03T05:53:17.812Z,3.30
2019-03-03T05:54:17.747Z,3.60
2019-03-03T05:55:17.683Z,2.20
2019-03-03T05:56:19.021Z,3.80
2019-03-03T05:57:17.553Z,4.40
2019-03-03T05:58:17.485Z,2.80
2019-03-03T05:59:17.420Z,2.60
2019-03-03T06:00:17.365Z,2.80
2019-03-03T06:01:17.291Z,2.30
2019-03-03T06:02:17.225Z,1.80
2019-03-03T06:03:17.161Z,3.40
2019-03-03T06:04:17.098Z,2.60
2019-03-03T06:05:17.033Z,5.30
2019-03-03T06:06:16.969Z,2.20
2019-03-03T06:07:16.904Z,2.00
2019-03-03T06:08:16.831Z,2.10
2019-03-03T06:09:16.769Z,3.30
2019-03-03T06:10:16.706Z,2.30
2019-03-03T06:11:16.643Z,3.50
2019-03-03T06:12:16.577Z,2.10
2019-03-03T06:13:16.507Z,2.20
2019-03-03T06:14:16.447Z,3.00
2019-03-03T06:15:16.438Z,2.10
2019-03-03T06:16:16.326Z,2.90
2019-03-03T06:17:16.252Z,3.10
2019-03-03T06:18:16.181Z,3.60
2019-03-03T06:19:16.120Z,2.10
2019-03-03T06:20:16.055Z,1.90
2019-03-03T06:21:15.993Z,2.10
2019-03-03T06:22:15.924Z,1.80
2019-03-03T06:23:15.857Z,1.90
2019-03-03T06:24:15.802Z,2.20
2019-03-03T06:25:15.721Z,1.80
2019-03-03T06:26:15.662Z,3.70
2019-03-03T06:27:15.608Z,3.00
2019-03-03T06:28:15.530Z,1.90
2019-03-03T06:29:15.461Z,2.50
2019-03-03T06:30:15.405Z,2.70
2019-03-03T06:31:15.333Z,2.40
2019-03-03T06:32:15.275Z,2.00
2019-03-03T06:33:15.209Z,3.10
2019-03-03T06:34:15.141Z,1.90
2019-03-03T06:35:15.071Z,2.20
2019-03-03T06:36:15.010Z,2.20
2019-03-03T06:37:14.943Z,2.30
2019-03-03T06:38:14.881Z,1.90
2019-03-03T06:39:14.811Z,2.60
2019-03-03T06:40:14.744Z,2.10
2019-03-03T06:41:14.679Z,2.00
2019-03-03T06:42:14.613Z,2.10
2019-03-03T06:43:14.552Z,2.10
2019-03-03T06:44:14.486Z,2.00
2019-03-03T06:45:14.419Z,1.80
2019-03-03T06:46:14.354Z,2.10
2019-03-03T06:47:14.290Z,1.70
2019-03-03T06:48:14.227Z,1.90
2019-03-03T06:49:14.154Z,1.80
2019-03-03T06:50:14.096Z,3.60
2019-03-03T06:51:14.031Z,1.80
2019-03-03T06:52:13.962Z,1.90
2019-03-03T06:53:13.902Z,1.80
2019-03-03T06:54:13.834Z,2.10
2019-03-03T06:55:13.770Z,2.40
2019-03-03T06:56:13.704Z,2.00
2019-03-03T06:57:13.637Z,5.20
2019-03-03T06:58:13.573Z,1.60
2019-03-03T06:59:13.503Z,3.40
2019-03-03T07:00:13.442Z,2.90
2019-03-03T07:01:13.384Z,2.60
2019-03-03T07:02:13.314Z,1.80
2019-03-03T07:03:13.245Z,1.70
2019-03-03T07:04:13.184Z,2.00
2019-03-03T07:05:13.116Z,3.10
2019-03-03T07:06:13.057Z,2.00
2019-03-03T07:07:12.988Z,1.60
2019-03-03T07:08:12.933Z,2.30
2019-03-03T07:09:12.851Z,2.90
2019-03-03T07:10:12.798Z,3.40
2019-03-03T07:11:12.725Z,2.20
2019-03-03T07:12:12.657Z,2.00
2019-03-03T07:13:12.596Z,3.00
2019-03-03T07:14:12.532Z,1.70
2019-03-03T07:15:12.466Z,1.90
2019-03-03T07:16:12.400Z,2.20
2019-03-03T07:17:12.345Z,2.00
2019-03-03T07:18:12.273Z,2.70
2019-03-03T07:19:12.203Z,2.00
2019-03-03T07:20:12.140Z,1.90
2019-03-03T07:21:12.076Z,1.90
2019-03-03T07:22:12.008Z,2.10
2019-03-03T07:23:11.945Z,3.10
2019-03-03T07:24:11.881Z,1.70
2019-03-03T07:25:11.819Z,3.70
2019-03-03T07:26:11.762Z,4.40
2019-03-03T07:27:11.683Z,2.70
2019-03-03T07:28:11.627Z,1.60
2019-03-03T07:29:11.554Z,4.10
2019-03-03T07:30:11.485Z,1.90
2019-03-03T07:31:11.429Z,2.40
2019-03-03T07:32:11.368Z,2.20
2019-03-03T07:33:11.298Z,2.30
2019-03-03T07:34:11.232Z,2.00
2019-03-03T07:35:11.170Z,2.80
2019-03-03T07:36:11.107Z,3.30
2019-03-03T07:37:11.036Z,1.80
2019-03-03T07:38:10.986Z,2.10
2019-03-03T07:39:10.910Z,2.10
2019-03-03T07:40:10.841Z,2.40
2019-03-03T07:41:10.776Z,1.90
2019-03-03T07:42:10.711Z,3.10
2019-03-03T07:43:10.650Z,1.90
2019-03-03T07:44:10.583Z,1.90
2019-03-03T07:45:10.527Z,2.30
2019-03-03T07:46:10.448Z,2.10
2019-03-03T07:47:10.388Z,2.60
2019-03-03T07:48:10.347Z,3.50
2019-03-03T07:49:10.259Z,6.50
2019-03-03T07:50:10.198Z,2.20
2019-03-03T07:51:10.131Z,1.70
2019-03-03T07:52:10.063Z,1.80
2019-03-03T07:53:10.005Z,2.30
2019-03-03T07:54:09.936Z,2.10
2019-03-03T07:55:09.871Z,1.80
2019-03-03T07:56:09.806Z,2.90
2019-03-03T07:57:09.748Z,1.80
2019-03-03T07:58:09.727Z,2.00
2019-03-03T07:59:09.612Z,5.30
2019-03-03T08:00:09.551Z,1.60
2019-03-03T08:01:09.516Z,3.80
2019-03-03T08:02:09.427Z,3.60
2019-03-03T08:03:09.357Z,4.00
2019-03-03T08:04:09.295Z,2.00
2019-03-03T08:05:09.228Z,1.80
2019-03-03T08:06:09.164Z,1.80
2019-03-03T08:07:09.110Z,3.00
2019-03-03T08:08:09.045Z,1.70
2019-03-03T08:09:08.971Z,2.40
2019-03-03T08:10:08.906Z,1.90
2019-03-03T08:11:08.843Z,1.80
2019-03-03T08:12:08.785Z,3.60
2019-03-03T08:13:09.427Z,1.60
2019-03-03T08:14:08.651Z,2.70
2019-03-03T08:15:08.585Z,1.80
2019-03-03T08:16:10.780Z,1.60
2019-03-03T08:17:08.460Z,1.40
2019-03-03T08:18:08.429Z,1.50
2019-03-03T08:19:08.329Z,2.70
2019-03-03T08:20:08.265Z,2.10
2019-03-03T08:21:08.203Z,4.40
2019-03-03T08:22:08.134Z,1.50
2019-03-03T08:23:08.071Z,2.20
2019-03-03T08:24:08.010Z,3.60
2019-03-03T08:25:07.943Z,1.70
2019-03-03T08:26:07.880Z,1.50
2019-03-03T08:27:07.819Z,1.50
2019-03-03T08:28:07.749Z,1.40
2019-03-03T08:29:07.682Z,2.70
2019-03-03T08:30:07.636Z,1.70
2019-03-03T08:31:07.554Z,2.60
2019-03-03T08:32:07.492Z,1.50
2019-03-03T08:33:07.429Z,1.50
2019-03-03T08:34:07.368Z,1.60
2019-03-03T08:35:07.301Z,1.50
2019-03-03T08:36:07.235Z,1.60
2019-03-03T08:37:07.170Z,1.40
2019-03-03T08:38:07.105Z,1.40
2019-03-03T08:39:07.050Z,3.10
2019-03-03T08:40:06.985Z,1.40
2019-03-03T08:41:06.924Z,3.30
2019-03-03T08:42:06.847Z,1.60
2019-03-03T08:43:06.784Z,2.00
2019-03-03T08:44:06.733Z,3.50
2019-03-03T08:45:06.656Z,2.80
2019-03-03T08:46:06.594Z,2.30
2019-03-03T08:47:06.526Z,1.50
2019-03-03T08:48:06.469Z,2.50
2019-03-03T08:49:06.401Z,1.40
2019-03-03T08:50:06.335Z,1.60
2019-03-03T08:51:06.271Z,2.20
2019-03-03T08:52:06.204Z,1.50
2019-03-03T08:53:06.156Z,1.40
2019-03-03T08:54:06.088Z,1.60
2019-03-03T08:55:06.011Z,3.60
2019-03-03T08:56:05.951Z,1.70
2019-03-03T08:57:05.887Z,1.70
2019-03-03T08:58:05.822Z,4.10
2019-03-03T08:59:05.755Z,2.00
2019-03-03T09:00:05.690Z,1.60
2019-03-03T09:01:05.629Z,1.70
2019-03-03T09:02:05.576Z,1.40
2019-03-03T09:03:05.502Z,2.40
2019-03-03T09:04:05.444Z,6.30
2019-03-03T09:05:05.368Z,2.60
2019-03-03T09:06:05.308Z,1.60
2019-03-03T09:07:05.244Z,2.80
2019-03-03T09:08:05.180Z,3.40
2019-03-03T09:09:05.117Z,1.40
2019-03-03T09:10:05.052Z,2.90
2019-03-03T09:11:04.992Z,1.70
2019-03-03T09:12:04.925Z,2.30
2019-03-03T09:13:04.858Z,4.00
2019-03-03T09:14:04.795Z,2.80
2019-03-03T09:15:04.754Z,4.90
2019-03-03T09:16:04.675Z,1.60
2019-03-03T09:17:04.602Z,3.10
2019-03-03T09:18:04.538Z,1.90
2019-03-03T09:19:04.475Z,2.80
2019-03-03T09:20:04.415Z,1.50
2019-03-03T09:21:04.347Z,7.30
2019-03-03T09:22:04.810Z,1.40
2019-03-03T09:23:04.225Z,5.80
2019-03-03T09:24:04.155Z,1.30
2019-03-03T09:25:04.090Z,1.70
2019-03-03T09:26:04.027Z,1.80
2019-03-03T09:27:03.963Z,1.50
2019-03-03T09:28:03.899Z,2.70
2019-03-03T09:29:03.839Z,1.50
2019-03-03T09:30:03.770Z,3.80
2019-03-03T09:31:03.702Z,1.50
2019-03-03T09:32:03.643Z,1.20
2019-03-03T09:33:03.597Z,3.30
2019-03-03T09:34:03.513Z,1.60
2019-03-03T09:35:03.450Z,3.70
2019-03-03T09:36:03.387Z,5.30
2019-03-03T09:37:03.323Z,2.00
2019-03-03T09:38:03.259Z,1.60
2019-03-03T09:39:03.202Z,2.80
2019-03-03T09:40:09.326Z,5.70
2019-03-03T09:41:03.061Z,3.10
2019-03-03T09:42:03.011Z,2.00
2019-03-03T09:43:02.943Z,1.60
2019-03-03T09:44:02.873Z,1.30
2019-03-03T09:45:02.808Z,6.40
2019-03-03T09:46:02.750Z,1.60
2019-03-03T09:47:02.685Z,3.00
2019-03-03T09:48:02.621Z,4.00
2019-03-03T09:49:02.555Z,5.70
2019-03-03T09:50:02.495Z,1.10
2019-03-03T09:51:02.430Z,1.50
2019-03-03T09:52:02.362Z,1.20
2019-03-03T09:53:02.304Z,1.40
2019-03-03T09:54:02.251Z,1.80
2019-03-03T09:55:02.176Z,2.80
2019-03-03T09:56:02.112Z,1.50
2019-03-03T09:57:02.048Z,3.80
2019-03-03T09:58:01.987Z,2.80
2019-03-03T09:59:01.941Z,1.30
2019-03-03T10:00:01.859Z,3.20
2019-03-03T10:01:01.794Z,2.40
2019-03-03T10:02:01.731Z,2.80
2019-03-03T10:03:01.668Z,2.00
2019-03-03T10:04:01.607Z,3.00
2019-03-03T10:05:01.544Z,1.70
2019-03-03T10:06:01.477Z,1.40
2019-03-03T10:07:01.414Z,6.50
2019-03-03T10:08:01.353Z,2.70
2019-03-03T10:09:01.286Z,1.90
2019-03-03T10:10:01.227Z,1.70
2019-03-03T10:11:01.160Z,2.10
2019-03-03T10:12:01.108Z,2.70
2019-03-03T10:13:01.035Z,9.10
2019-03-03T10:14:00.969Z,2.90
2019-03-03T10:15:00.913Z,2.80
2019-03-03T10:16:00.840Z,2.40
2019-03-03T10:17:00.781Z,1.70
2019-03-03T10:18:00.716Z,2.70
2019-03-03T10:19:07.138Z,1.40
2019-03-03T10:20:00.589Z,2.20
2019-03-03T10:21:00.530Z,1.40
2019-03-03T10:22:00.464Z,1.60
2019-03-03T10:23:00.401Z,3.30
2019-03-03T10:24:00.337Z,2.00
2019-03-03T10:25:00.309Z,1.90
2019-03-03T10:26:00.214Z,1.60
2019-03-03T10:27:00.148Z,3.90
2019-03-03T10:28:00.086Z,4.90
2019-03-03T10:29:00.029Z,3.40
2019-03-03T10:29:59.967Z,1.30
2019-03-03T10:30:59.943Z,1.50
2019-03-03T10:31:59.831Z,2.60
2019-03-03T10:32:59.767Z,1.20
2019-03-03T10:33:59.710Z,4.30
2019-03-03T10:34:59.644Z,1.60
2019-03-03T10:35:59.582Z,2.90
2019-03-03T10:36:59.518Z,1.20
2019-03-03T10:37:59.457Z,4.50
2019-03-03T10:38:59.391Z,2.50
2019-03-03T10:39:59.335Z,1.90
2019-03-03T10:40:59.261Z,1.40
2019-03-03T10:41:59.201Z,1.90
2019-03-03T10:42:59.145Z,1.30
2019-03-03T10:43:59.085Z,1.70
2019-03-03T10:44:59.020Z,3.30
2019-03-03T10:45:58.944Z,1.70
2019-03-03T10:46:58.886Z,1.30
2019-03-03T10:47:58.824Z,1.20
2019-03-03T10:48:58.762Z,1.90
2019-03-03T10:49:58.701Z,2.00
2019-03-03T10:50:58.630Z,1.60
2019-03-03T10:51:58.572Z,1.70
2019-03-03T10:52:58.516Z,2.40
2019-03-03T10:53:58.444Z,1.70
2019-03-03T10:54:58.383Z,1.60
2019-03-03T10:55:58.335Z,1.60
2019-03-03T10:56:58.251Z,2.40
2019-03-03T10:57:58.215Z,2.60
2019-03-03T10:58:58.129Z,1.50
2019-03-03T10:59:58.067Z,3.30
2019-03-03T11:00:58.005Z,1.40
2019-03-03T11:01:57.946Z,1.80
2019-03-03T11:02:57.876Z,1.80
2019-03-03T11:03:57.816Z,3.00
2019-03-03T11:04:57.750Z,1.50
2019-03-03T11:05:57.690Z,1.60
2019-03-03T11:06:57.630Z,1.60
2019-03-03T11:07:57.566Z,1.60
2019-03-03T11:08:57.499Z,2.70
2019-03-03T11:09:57.440Z,1.80
2019-03-03T11:10:57.935Z,2.40
2019-03-03T11:11:57.323Z,3.80
2019-03-03T11:12:57.247Z,2.50
2019-03-03T11:13:57.220Z,2.60
2019-03-03T11:14:57.137Z,1.50
2019-03-03T11:15:57.061Z,1.70
2019-03-03T11:16:56.998Z,1.50
2019-03-03T11:17:56.956Z,1.60
2019-03-03T11:18:56.874Z,2.30
2019-03-03T11:19:56.812Z,1.20
2019-03-03T11:20:56.749Z,2.10
2019-03-03T11:21:56.685Z,2.80
2019-03-03T11:22:56.623Z,2.80
2019-03-03T11:23:56.567Z,2.40
2019-03-03T11:24:56.496Z,4.30
2019-03-03T11:25:56.435Z,1.60
2019-03-03T11:26:56.373Z,2.80
2019-03-03T11:27:56.305Z,1.60
2019-03-03T11:28:56.250Z,1.70
2019-03-03T11:29:56.183Z,1.90
2019-03-03T11:30:56.119Z,2.60
2019-03-03T11:31:56.053Z,2.40
2019-03-03T11:32:55.995Z,2.10
2019-03-03T11:33:55.947Z,2.80
2019-03-03T11:34:55.868Z,2.00
2019-03-03T11:35:55.805Z,1.60
2019-03-03T11:36:55.749Z,1.60
2019-03-03T11:37:55.679Z,1.60
2019-03-03T11:38:55.617Z,1.40
2019-03-03T11:39:55.559Z,2.50
2019-03-03T11:40:55.492Z,2.50
2019-03-03T11:41:55.427Z,2.10
2019-03-03T11:42:55.368Z,1.50
2019-03-03T11:43:55.302Z,3.60
2019-03-03T11:44:55.244Z,2.90
2019-03-03T11:45:55.187Z,4.20
2019-03-03T11:46:55.115Z,2.80
2019-03-03T11:48:03.883Z,1.40
2019-03-03T11:48:55.015Z,1.50
2019-03-03T11:49:54.926Z,2.60
2019-03-03T11:50:54.868Z,1.70
2019-03-03T11:51:54.800Z,1.40
2019-03-03T11:52:54.732Z,1.70
2019-03-03T11:53:54.669Z,1.30
2019-03-03T11:54:54.613Z,1.30
2019-03-03T11:55:54.547Z,2.00
2019-03-03T11:56:54.485Z,3.80
2019-03-03T11:57:54.423Z,1.50
2019-03-03T11:58:54.365Z,1.60
2019-03-03T11:59:54.295Z,2.00
2019-03-03T12:00:54.235Z,1.30
2019-03-03T12:01:54.190Z,1.70
2019-03-03T12:02:54.300Z,4.20
2019-03-03T12:03:54.050Z,1.30
2019-03-03T12:04:53.983Z,3.50
2019-03-03T12:05:53.921Z,2.30
2019-03-03T12:06:53.879Z,1.60
2019-03-03T12:07:53.796Z,1.50
2019-03-03T12:08:53.737Z,2.60
2019-03-03T12:09:53.670Z,2.10
2019-03-03T12:10:53.608Z,1.30
2019-03-03T12:11:53.549Z,1.30
2019-03-03T12:12:53.492Z,1.80
2019-03-03T12:13:53.429Z,1.60
2019-03-03T12:14:53.359Z,1.50
2019-03-03T12:15:53.301Z,1.90
2019-03-03T12:16:53.235Z,1.20
2019-03-03T12:17:53.169Z,2.50
2019-03-03T12:18:53.106Z,3.50
2019-03-03T12:19:53.051Z,2.40
2019-03-03T12:20:52.985Z,1.30
2019-03-03T12:21:52.916Z,1.30
2019-03-03T12:22:52.871Z,1.60
2019-03-03T12:23:52.801Z,1.60
2019-03-03T12:24:52.727Z,1.60
2019-03-03T12:25:52.693Z,1.50
2019-03-03T12:26:52.608Z,1.60
2019-03-03T12:27:52.545Z,1.50
2019-03-03T12:28:52.482Z,1.70
2019-03-03T12:29:52.419Z,1.40
2019-03-03T12:30:52.355Z,1.20
2019-03-03T12:31:52.295Z,1.90
2019-03-03T12:32:52.229Z,1.70
2019-03-03T12:33:52.170Z,2.00
2019-03-03T12:34:52.105Z,1.50
2019-03-03T12:35:52.043Z,1.10
2019-03-03T12:36:54.060Z,1.20
2019-03-03T12:37:51.918Z,1.60
2019-03-03T12:38:51.858Z,1.60
2019-03-03T12:39:51.800Z,4.10
2019-03-03T12:40:51.735Z,3.10
2019-03-03T12:41:51.668Z,1.50
2019-03-03T12:42:51.609Z,1.30
2019-03-03T12:43:51.550Z,1.40
2019-03-03T12:44:51.487Z,1.60
2019-03-03T12:45:51.419Z,1.40
2019-03-03T12:46:51.366Z,2.70
2019-03-03T12:47:51.300Z,1.50
2019-03-03T12:48:51.240Z,2.00
2019-03-03T12:49:51.172Z,1.70
2019-03-03T12:50:51.107Z,3.20
2019-03-03T12:51:51.044Z,2.80
2019-03-03T12:52:50.978Z,1.90
2019-03-03T12:53:50.923Z,1.70
2019-03-03T12:54:50.864Z,1.70
2019-03-03T12:55:50.794Z,1.60
2019-03-03T12:56:50.738Z,2.80
2019-03-03T12:57:50.673Z,2.20
2019-03-03T12:58:50.606Z,2.50
2019-03-03T12:59:50.545Z,1.70
2019-03-03T13:00:50.479Z,3.20
2019-03-03T13:01:50.420Z,3.50
2019-03-03T13:02:50.359Z,1.50
2019-03-03T13:03:50.297Z,1.60
2019-03-03T13:04:50.235Z,1.70
2019-03-03T13:05:50.172Z,3.50
2019-03-03T13:06:50.110Z,1.30
2019-03-03T13:07:50.047Z,1.60
2019-03-03T13:08:59.195Z,1.90
2019-03-03T13:09:49.923Z,1.40
2019-03-03T13:10:49.861Z,1.90
2019-03-03T13:11:50.901Z,2.70
2019-03-03T13:12:49.737Z,2.10
2019-03-03T13:13:49.674Z,1.60
2019-03-03T13:14:49.621Z,1.50
2019-03-03T13:15:49.550Z,1.70
2019-03-03T13:16:49.486Z,1.60
2019-03-03T13:17:49.431Z,4.50